createdAt,value
2018-08-19T00:00:46.456Z,1012.61
2018-08-19T00:01:50.847Z,1012.62
2018-08-19T00:02:56.362Z,1012.60
2018-08-19T00:04:02.892Z,1012.59
2018-08-19T00:05:07.391Z,1012.62
2018-08-19T00:06:13.957Z,1012.60
2018-08-19T00:07:18.450Z,1012.61
2018-08-19T00:08:23.978Z,1012.62
2018-08-19T00:09:30.466Z,1012.57
2018-08-19T00:10:34.999Z,1012.56
2018-08-19T00:11:41.493Z,1012.59
2018-08-19T00:12:46.022Z,1012.52
2018-08-19T00:13:51.519Z,1012.55
2018-08-19T00:14:58.041Z,1012.50
2018-08-19T00:16:02.580Z,1012.48
2018-08-19T00:17:09.104Z,1012.47
2018-08-19T00:18:13.600Z,1012.49
2018-08-19T00:19:19.082Z,1012.48
2018-08-19T00:20:25.607Z,1012.49
2018-08-19T00:21:30.137Z,1012.50
2018-08-19T00:22:36.667Z,1012.48
2018-08-19T00:23:41.729Z,1012.50
2018-08-19T00:24:46.680Z,1012.50
2018-08-19T00:25:53.199Z,1012.52
2018-08-19T00:26:57.724Z,1012.47
2018-08-19T00:28:04.244Z,1012.48
2018-08-19T00:29:08.756Z,1012.48
2018-08-19T00:30:14.243Z,1012.50
2018-08-19T00:31:20.778Z,1012.46
2018-08-19T00:32:25.291Z,1012.44
2018-08-19T00:33:31.824Z,1012.38
2018-08-19T00:34:36.319Z,1012.41
2018-08-19T00:35:41.812Z,1012.47
2018-08-19T00:36:48.367Z,1012.42
2018-08-19T00:37:52.889Z,1012.44
2018-08-19T00:38:59.393Z,1012.42
2018-08-19T00:40:03.911Z,1012.41
2018-08-19T00:41:09.428Z,1012.43
2018-08-19T00:42:15.943Z,1012.40
2018-08-19T00:43:20.450Z,1012.38
2018-08-19T00:44:26.996Z,1012.44
2018-08-19T00:45:31.481Z,1012.40
2018-08-19T00:46:36.971Z,1012.42
2018-08-19T00:47:43.509Z,1012.39
2018-08-19T00:48:48.008Z,1012.38
2018-08-19T00:49:54.565Z,1012.40
2018-08-19T00:50:59.040Z,1012.40
2018-08-19T00:52:04.565Z,1012.41
2018-08-19T00:53:11.104Z,1012.45
2018-08-19T00:54:15.626Z,1012.39
2018-08-19T00:55:22.095Z,1012.39
2018-08-19T00:56:26.620Z,1012.39
2018-08-19T00:57:32.145Z,1012.38
2018-08-19T00:58:38.657Z,1012.36
2018-08-19T00:59:43.162Z,1012.35
2018-08-19T01:00:49.696Z,1012.34
2018-08-19T01:01:54.230Z,1012.33
2018-08-19T01:02:59.714Z,1012.33
2018-08-19T01:04:06.228Z,1012.31
2018-08-19T01:05:10.745Z,1012.32
2018-08-19T01:06:17.256Z,1012.31
2018-08-19T01:07:21.783Z,1012.33
2018-08-19T01:08:27.284Z,1012.32
2018-08-19T01:09:33.818Z,1012.31
2018-08-19T01:10:38.329Z,1012.31
2018-08-19T01:11:44.848Z,1012.29
2018-08-19T01:12:49.341Z,1012.28
2018-08-19T01:13:54.889Z,1012.28
2018-08-19T01:15:01.380Z,1012.27
2018-08-19T01:16:05.910Z,1012.24
2018-08-19T01:17:12.421Z,1012.27
2018-08-19T01:18:16.920Z,1012.27
2018-08-19T01:19:22.460Z,1012.29
2018-08-19T01:20:28.962Z,1012.29
2018-08-19T01:21:33.475Z,1012.29
2018-08-19T01:22:39.994Z,1012.32
2018-08-19T01:23:44.517Z,1012.32
2018-08-19T01:24:50.026Z,1012.31
2018-08-19T01:25:56.557Z,1012.31
2018-08-19T01:27:01.064Z,1012.33
2018-08-19T01:28:07.603Z,1012.30
2018-08-19T01:29:12.064Z,1012.26
2018-08-19T01:30:17.593Z,1012.32
2018-08-19T01:31:24.132Z,1012.30
2018-08-19T01:32:28.629Z,1012.29
2018-08-19T01:33:35.173Z,1012.25
2018-08-19T01:34:39.672Z,1012.25
2018-08-19T01:35:45.188Z,1012.25
2018-08-19T01:36:51.692Z,1012.28
2018-08-19T01:37:56.209Z,1012.25
2018-08-19T01:39:02.715Z,1012.25
2018-08-19T01:40:07.228Z,1012.22
2018-08-19T01:41:12.733Z,1012.27
2018-08-19T01:42:19.268Z,1012.24
2018-08-19T01:43:23.768Z,1012.21
2018-08-19T01:44:30.314Z,1012.20
2018-08-19T01:45:34.816Z,1012.20
2018-08-19T01:46:40.340Z,1012.21
2018-08-19T01:47:46.863Z,1012.19
2018-08-19T01:48:51.341Z,1012.21
2018-08-19T01:49:57.892Z,1012.19
2018-08-19T01:51:02.375Z,1012.17
2018-08-19T01:52:07.955Z,1012.18
2018-08-19T01:53:14.415Z,1012.17
2018-08-19T01:54:18.930Z,1012.16
2018-08-19T01:55:25.446Z,1012.14
2018-08-19T01:56:29.951Z,1012.20
2018-08-19T01:57:35.467Z,1012.19
2018-08-19T01:58:42.005Z,1012.17
2018-08-19T01:59:46.514Z,1012.20
2018-08-19T02:00:53.023Z,1012.20
2018-08-19T02:01:57.547Z,1012.17
2018-08-19T02:03:03.067Z,1012.19
2018-08-19T02:04:09.574Z,1012.12
2018-08-19T02:05:14.081Z,1012.21
2018-08-19T02:06:20.609Z,1012.14
2018-08-19T02:07:25.104Z,1012.15
2018-08-19T02:08:30.631Z,1012.14
2018-08-19T02:09:37.145Z,1012.18
2018-08-19T02:10:41.654Z,1012.22
2018-08-19T02:11:48.182Z,1012.18
2018-08-19T02:12:52.682Z,1012.20
2018-08-19T02:13:58.226Z,1012.19
2018-08-19T02:15:04.716Z,1012.22
2018-08-19T02:16:09.224Z,1012.22
2018-08-19T02:17:15.755Z,1012.21
2018-08-19T02:18:20.258Z,1012.21
2018-08-19T02:19:25.784Z,1012.21
2018-08-19T02:20:32.275Z,1012.18
2018-08-19T02:21:36.809Z,1012.19
2018-08-19T02:22:43.326Z,1012.15
2018-08-19T02:23:47.836Z,1012.16
2018-08-19T02:24:53.352Z,1012.16
2018-08-19T02:25:59.872Z,1012.19
2018-08-19T02:27:04.399Z,1012.19
2018-08-19T02:28:10.906Z,1012.21
2018-08-19T02:29:15.397Z,1012.19
2018-08-19T02:30:20.920Z,1012.22
2018-08-19T02:31:27.464Z,1012.20
2018-08-19T02:32:31.951Z,1012.18
2018-08-19T02:33:38.487Z,1012.18
2018-08-19T02:34:42.984Z,1012.16
2018-08-19T02:35:48.490Z,1012.17
2018-08-19T02:36:55.018Z,1012.16
2018-08-19T02:37:59.526Z,1012.17
2018-08-19T02:39:06.075Z,1012.17
2018-08-19T02:40:10.562Z,1012.15
2018-08-19T02:41:16.090Z,1012.16
2018-08-19T02:42:22.610Z,1012.21
2018-08-19T02:43:27.104Z,1012.16
2018-08-19T02:44:33.621Z,1012.18
2018-08-19T02:45:38.155Z,1012.15
2018-08-19T02:46:43.632Z,1012.14
2018-08-19T02:47:50.192Z,1012.12
2018-08-19T02:48:54.681Z,1012.16
2018-08-19T02:50:01.210Z,1012.12
2018-08-19T02:51:05.715Z,1012.10
2018-08-19T02:52:11.232Z,1012.10
2018-08-19T02:53:17.750Z,1012.07
2018-08-19T02:54:22.265Z,1012.09
2018-08-19T02:55:28.774Z,1012.11
2018-08-19T02:56:33.284Z,1012.08
2018-08-19T02:57:38.786Z,1012.16
2018-08-19T02:58:45.308Z,1012.07
2018-08-19T02:59:49.829Z,1012.09
2018-08-19T03:00:56.333Z,1012.12
2018-08-19T03:02:00.865Z,1012.10
2018-08-19T03:03:06.347Z,1012.07
2018-08-19T03:04:12.895Z,1012.04
2018-08-19T03:05:17.397Z,1012.05
2018-08-19T03:06:23.918Z,1012.10
2018-08-19T03:07:28.433Z,1012.09
2018-08-19T03:08:33.937Z,1012.04
2018-08-19T03:09:40.481Z,1012.05
2018-08-19T03:10:44.997Z,1012.07
2018-08-19T03:11:51.496Z,1012.08
2018-08-19T03:12:56.014Z,1012.07
2018-08-19T03:14:01.505Z,1012.08
2018-08-19T03:15:08.126Z,1012.06
2018-08-19T03:16:12.559Z,1012.04
2018-08-19T03:17:19.078Z,1012.05
2018-08-19T03:18:23.569Z,1012.04
2018-08-19T03:19:29.080Z,1012.05
2018-08-19T03:20:35.618Z,1012.05
2018-08-19T03:21:40.118Z,1012.09
2018-08-19T03:22:46.849Z,1012.09
2018-08-19T03:23:51.158Z,1012.06
2018-08-19T03:24:56.693Z,1012.08
2018-08-19T03:26:03.182Z,1012.08
2018-08-19T03:27:07.686Z,1012.09
2018-08-19T03:28:14.200Z,1012.08
2018-08-19T03:29:18.763Z,1012.05
2018-08-19T03:30:24.225Z,1012.06
2018-08-19T03:31:30.776Z,1012.01
2018-08-19T03:32:35.250Z,1012.05
2018-08-19T03:33:41.805Z,1012.05
2018-08-19T03:34:46.337Z,1012.03
2018-08-19T03:35:51.798Z,1012.01
2018-08-19T03:36:58.341Z,1011.98
2018-08-19T03:38:02.872Z,1011.99
2018-08-19T03:39:09.365Z,1011.98
2018-08-19T03:40:13.875Z,1011.96
2018-08-19T03:41:19.394Z,1011.96
2018-08-19T03:42:25.917Z,1011.95
2018-08-19T03:43:30.418Z,1011.92
2018-08-19T03:44:36.920Z,1011.94
2018-08-19T03:45:41.419Z,1011.94
2018-08-19T03:46:46.949Z,1011.91
2018-08-19T03:47:53.463Z,1011.91
2018-08-19T03:48:57.991Z,1011.94
2018-08-19T03:50:04.506Z,1011.91
2018-08-19T03:51:09.005Z,1011.89
2018-08-19T03:52:14.512Z,1011.93
2018-08-19T03:53:21.072Z,1011.97
2018-08-19T03:54:25.567Z,1011.92
2018-08-19T03:55:32.085Z,1011.97
2018-08-19T03:56:36.587Z,1011.98
2018-08-19T03:57:42.102Z,1011.97
2018-08-19T03:58:48.635Z,1011.97
2018-08-19T03:59:53.120Z,1012.01
2018-08-19T04:00:59.672Z,1012.00
2018-08-19T04:02:04.160Z,1012.01
2018-08-19T04:03:09.676Z,1012.04
2018-08-19T04:04:16.201Z,1012.01
2018-08-19T04:05:20.702Z,1012.03
2018-08-19T04:06:27.224Z,1012.03
2018-08-19T04:07:31.724Z,1012.03
2018-08-19T04:08:37.258Z,1011.98
2018-08-19T04:09:43.786Z,1012.01
2018-08-19T04:10:48.245Z,1012.00
2018-08-19T04:11:54.800Z,1011.98
2018-08-19T04:12:59.296Z,1011.99
2018-08-19T04:14:04.820Z,1012.02
2018-08-19T04:15:11.338Z,1012.01
2018-08-19T04:16:15.846Z,1012.00
2018-08-19T04:17:22.378Z,1011.99
2018-08-19T04:18:26.861Z,1012.00
2018-08-19T04:19:32.379Z,1011.94
2018-08-19T04:20:38.916Z,1011.91
2018-08-19T04:21:43.399Z,1011.92
2018-08-19T04:22:49.958Z,1011.91
2018-08-19T04:23:54.443Z,1011.93
2018-08-19T04:24:59.943Z,1011.92
2018-08-19T04:26:06.484Z,1011.91
2018-08-19T04:27:10.991Z,1011.99
2018-08-19T04:28:17.547Z,1011.90
2018-08-19T04:29:22.027Z,1011.95
2018-08-19T04:30:27.518Z,1011.95
2018-08-19T04:31:34.068Z,1011.96
2018-08-19T04:32:38.548Z,1011.93
2018-08-19T04:33:45.100Z,1011.95
2018-08-19T04:34:49.598Z,1011.95
2018-08-19T04:35:55.096Z,1011.97
2018-08-19T04:37:01.626Z,1011.93
2018-08-19T04:38:06.119Z,1011.97
2018-08-19T04:39:12.658Z,1011.96
2018-08-19T04:40:17.167Z,1011.94
2018-08-19T04:41:22.692Z,1011.97
2018-08-19T04:42:29.188Z,1011.98
2018-08-19T04:43:33.691Z,1011.97
2018-08-19T04:44:40.233Z,1011.94
2018-08-19T04:45:44.747Z,1011.96
2018-08-19T04:46:50.245Z,1011.96
2018-08-19T04:47:56.787Z,1011.94
2018-08-19T04:49:01.284Z,1011.93
2018-08-19T04:50:07.791Z,1011.90
2018-08-19T04:51:12.308Z,1011.87
2018-08-19T04:52:17.821Z,1011.84
2018-08-19T04:53:24.351Z,1011.90
2018-08-19T04:54:28.849Z,1011.94
2018-08-19T04:55:35.379Z,1011.88
2018-08-19T04:56:39.881Z,1011.88
2018-08-19T04:57:45.395Z,1011.89
2018-08-19T04:58:51.924Z,1011.84
2018-08-19T04:59:56.423Z,1011.90
2018-08-19T05:01:02.942Z,1011.90
2018-08-19T05:02:07.514Z,1011.89
2018-08-19T05:03:12.968Z,1011.90
2018-08-19T05:04:19.507Z,1011.89
2018-08-19T05:05:23.998Z,1011.85
2018-08-19T05:06:30.519Z,1011.90
2018-08-19T05:07:35.057Z,1011.90
2018-08-19T05:08:40.552Z,1011.91
2018-08-19T05:09:47.063Z,1011.97
2018-08-19T05:10:51.561Z,1011.96
2018-08-19T05:11:58.083Z,1011.98
2018-08-19T05:13:02.596Z,1011.94
2018-08-19T05:14:08.116Z,1011.95
2018-08-19T05:15:14.659Z,1011.99
2018-08-19T05:16:19.130Z,1011.97
2018-08-19T05:17:25.658Z,1012.00
2018-08-19T05:18:30.155Z,1012.05
2018-08-19T05:19:35.696Z,1012.02
2018-08-19T05:20:42.191Z,1012.03
2018-08-19T05:21:46.736Z,1012.04
2018-08-19T05:22:53.261Z,1012.03
2018-08-19T05:23:57.749Z,1012.05
2018-08-19T05:25:03.249Z,1012.04
2018-08-19T05:26:09.784Z,1012.03
2018-08-19T05:27:14.286Z,1012.09
2018-08-19T05:28:20.838Z,1012.06
2018-08-19T05:29:25.329Z,1012.10
2018-08-19T05:30:30.840Z,1012.05
2018-08-19T05:31:37.429Z,1012.07
2018-08-19T05:32:41.842Z,1012.09
2018-08-19T05:33:48.387Z,1012.10
2018-08-19T05:34:52.890Z,1012.09
2018-08-19T05:35:58.422Z,1012.10
2018-08-19T05:37:04.914Z,1012.10
2018-08-19T05:38:09.554Z,1012.11
2018-08-19T05:39:15.968Z,1012.10
2018-08-19T05:40:20.458Z,1012.11
2018-08-19T05:41:25.979Z,1012.10
2018-08-19T05:42:32.492Z,1012.09
2018-08-19T05:43:37.006Z,1012.04
2018-08-19T05:44:43.533Z,1012.00
2018-08-19T05:45:48.027Z,1012.04
2018-08-19T05:46:53.562Z,1012.04
2018-08-19T05:48:00.069Z,1012.10
2018-08-19T05:49:04.612Z,1012.09
2018-08-19T05:50:11.103Z,1012.09
2018-08-19T05:51:15.611Z,1012.05
2018-08-19T05:52:21.123Z,1012.10
2018-08-19T05:53:27.622Z,1012.09
2018-08-19T05:54:32.139Z,1012.06
2018-08-19T05:55:38.810Z,1012.08
2018-08-19T05:56:43.895Z,1012.05
2018-08-19T05:57:48.688Z,1012.04
2018-08-19T05:58:55.223Z,1012.03
2018-08-19T05:59:59.734Z,1012.03
2018-08-19T06:01:06.293Z,1012.03
2018-08-19T06:02:10.763Z,1012.04
2018-08-19T06:03:16.287Z,1012.03
2018-08-19T06:04:22.811Z,1012.03
2018-08-19T06:05:27.307Z,1011.99
2018-08-19T06:06:33.841Z,1011.98
2018-08-19T06:07:38.388Z,1011.97
2018-08-19T06:08:43.857Z,1011.96
2018-08-19T06:09:50.369Z,1011.93
2018-08-19T06:10:54.884Z,1011.96
2018-08-19T06:12:01.417Z,1011.95
2018-08-19T06:13:05.933Z,1011.92
2018-08-19T06:14:11.446Z,1011.93
2018-08-19T06:15:17.936Z,1011.95
2018-08-19T06:16:22.446Z,1011.93
2018-08-19T06:17:28.973Z,1011.95
2018-08-19T06:18:33.457Z,1011.95
2018-08-19T06:19:39.053Z,1012.01
2018-08-19T06:20:45.518Z,1012.00
2018-08-19T06:21:50.077Z,1012.00
2018-08-19T06:22:56.546Z,1011.99
2018-08-19T06:24:01.059Z,1012.02
2018-08-19T06:25:06.576Z,1012.02
2018-08-19T06:26:13.113Z,1012.03
2018-08-19T06:27:17.601Z,1012.01
2018-08-19T06:28:24.130Z,1012.06
2018-08-19T06:29:28.635Z,1012.02
2018-08-19T06:30:34.169Z,1012.02
2018-08-19T06:31:40.686Z,1012.04
2018-08-19T06:32:45.188Z,1012.10
2018-08-19T06:33:51.726Z,1012.04
2018-08-19T06:34:56.251Z,1012.01
2018-08-19T06:36:01.744Z,1012.04
2018-08-19T06:37:08.320Z,1012.03
2018-08-19T06:38:12.780Z,1012.05
2018-08-19T06:39:19.297Z,1012.04
2018-08-19T06:40:23.821Z,1012.07
2018-08-19T06:41:29.334Z,1012.05
2018-08-19T06:42:35.834Z,1012.06
2018-08-19T06:43:40.344Z,1012.02
2018-08-19T06:44:46.873Z,1012.06
2018-08-19T06:45:51.363Z,1012.01
2018-08-19T06:46:56.896Z,1012.06
2018-08-19T06:48:03.415Z,1012.00
2018-08-19T06:49:07.904Z,1012.03
2018-08-19T06:50:14.444Z,1012.01
2018-08-19T06:51:19.048Z,1012.02
2018-08-19T06:52:24.462Z,1011.99
2018-08-19T06:53:30.992Z,1011.97
2018-08-19T06:54:35.523Z,1012.01
2018-08-19T06:55:42.046Z,1012.01
2018-08-19T06:56:46.550Z,1012.03
2018-08-19T06:57:52.092Z,1012.00
2018-08-19T06:58:58.571Z,1012.05
2018-08-19T07:00:03.091Z,1012.05
2018-08-19T07:01:09.602Z,1012.03
2018-08-19T07:02:14.107Z,1011.97
2018-08-19T07:03:19.670Z,1011.95
2018-08-19T07:04:26.152Z,1011.96
2018-08-19T07:05:30.677Z,1011.88
2018-08-19T07:06:37.203Z,1011.89
2018-08-19T07:07:41.711Z,1011.93
2018-08-19T07:08:47.204Z,1011.91
2018-08-19T07:09:53.731Z,1011.91
2018-08-19T07:10:58.242Z,1011.93
2018-08-19T07:12:04.748Z,1011.90
2018-08-19T07:13:09.290Z,1011.94
2018-08-19T07:14:14.789Z,1011.93
2018-08-19T07:15:21.349Z,1011.84
2018-08-19T07:16:25.831Z,1011.90
2018-08-19T07:17:32.335Z,1011.88
2018-08-19T07:18:36.893Z,1011.87
2018-08-19T07:19:42.363Z,1011.87
2018-08-19T07:20:48.897Z,1011.86
2018-08-19T07:21:53.419Z,1011.83
2018-08-19T07:22:59.935Z,1011.85
2018-08-19T07:24:04.437Z,1011.88
2018-08-19T07:25:09.940Z,1011.86
2018-08-19T07:26:16.485Z,1011.89
2018-08-19T07:27:20.998Z,1011.92
2018-08-19T07:28:27.497Z,1011.94
2018-08-19T07:29:32.060Z,1011.86
2018-08-19T07:30:37.550Z,1011.86
2018-08-19T07:31:44.913Z,1011.87
2018-08-19T07:32:48.594Z,1011.85
2018-08-19T07:33:55.110Z,1011.86
2018-08-19T07:34:59.606Z,1011.86
2018-08-19T07:36:05.121Z,1011.87
2018-08-19T07:37:11.727Z,1011.86
2018-08-19T07:38:16.161Z,1011.86
2018-08-19T07:39:22.687Z,1011.83
2018-08-19T07:40:27.175Z,1011.84
2018-08-19T07:41:32.713Z,1011.85
2018-08-19T07:42:39.254Z,1011.86
2018-08-19T07:43:43.799Z,1011.85
2018-08-19T07:44:50.274Z,1011.87
2018-08-19T07:45:54.793Z,1011.92
2018-08-19T07:47:00.286Z,1011.85
2018-08-19T07:48:06.820Z,1011.86
2018-08-19T07:49:11.314Z,1011.88
2018-08-19T07:50:17.828Z,1011.92
2018-08-19T07:51:22.361Z,1011.90
2018-08-19T07:52:27.866Z,1011.95
2018-08-19T07:53:34.392Z,1011.95
2018-08-19T07:54:38.912Z,1011.94
2018-08-19T07:55:45.459Z,1011.92
2018-08-19T07:56:49.922Z,1011.91
2018-08-19T07:57:55.464Z,1011.90
2018-08-19T07:59:02.012Z,1011.92
2018-08-19T08:00:06.501Z,1011.88
2018-08-19T08:01:13.048Z,1011.88
2018-08-19T08:02:17.525Z,1011.92
2018-08-19T08:03:23.055Z,1011.89
2018-08-19T08:04:29.599Z,1011.91
2018-08-19T08:05:34.068Z,1011.94
2018-08-19T08:06:40.593Z,1011.93
2018-08-19T08:07:45.096Z,1011.93
2018-08-19T08:08:50.624Z,1011.92
2018-08-19T08:09:57.170Z,1011.95
2018-08-19T08:11:01.700Z,1011.92
2018-08-19T08:12:08.190Z,1011.96
2018-08-19T08:13:12.714Z,1011.94
2018-08-19T08:14:18.218Z,1011.90
2018-08-19T08:15:24.745Z,1011.95
2018-08-19T08:16:29.231Z,1011.94
2018-08-19T08:17:35.787Z,1011.94
2018-08-19T08:18:40.316Z,1011.94
2018-08-19T08:19:45.791Z,1011.93
2018-08-19T08:20:52.358Z,1011.87
2018-08-19T08:21:56.814Z,1011.89
2018-08-19T08:23:03.370Z,1011.92
2018-08-19T08:24:07.910Z,1011.90
2018-08-19T08:25:13.394Z,1011.85
2018-08-19T08:26:19.939Z,1011.85
2018-08-19T08:27:24.403Z,1011.92
2018-08-19T08:28:30.956Z,1011.91
2018-08-19T08:29:35.513Z,1011.93
2018-08-19T08:30:40.998Z,1011.90
2018-08-19T08:31:47.562Z,1011.87
2018-08-19T08:32:51.997Z,1011.90
2018-08-19T08:33:58.538Z,1011.89
2018-08-19T08:35:03.052Z,1011.88
2018-08-19T08:36:08.571Z,1011.86
2018-08-19T08:37:15.096Z,1011.84
2018-08-19T08:38:19.589Z,1011.84
2018-08-19T08:39:26.152Z,1011.87
2018-08-19T08:40:30.691Z,1011.85
2018-08-19T08:41:36.150Z,1011.89
2018-08-19T08:42:42.679Z,1011.87
2018-08-19T08:43:47.174Z,1011.82
2018-08-19T08:44:53.740Z,1011.87
2018-08-19T08:45:58.224Z,1011.83
2018-08-19T08:47:03.737Z,1011.89
2018-08-19T08:48:10.263Z,1011.85
2018-08-19T08:49:14.772Z,1011.88
2018-08-19T08:50:21.325Z,1011.82
2018-08-19T08:51:25.803Z,1011.82
2018-08-19T08:52:31.333Z,1011.80
2018-08-19T08:53:37.862Z,1011.82
2018-08-19T08:54:42.371Z,1011.82
2018-08-19T08:55:48.899Z,1011.82
2018-08-19T08:56:53.396Z,1011.81
2018-08-19T08:57:58.906Z,1011.80
2018-08-19T08:59:05.433Z,1011.81
2018-08-19T09:00:09.939Z,1011.85
2018-08-19T09:01:16.501Z,1011.88
2018-08-19T09:02:20.989Z,1011.85
2018-08-19T09:03:26.509Z,1011.87
2018-08-19T09:04:33.075Z,1011.82
2018-08-19T09:05:37.544Z,1011.86
2018-08-19T09:06:44.066Z,1011.89
2018-08-19T09:07:48.575Z,1011.91
2018-08-19T09:08:54.095Z,1011.88
2018-08-19T09:10:00.615Z,1011.86
2018-08-19T09:11:05.131Z,1011.85
2018-08-19T09:12:11.708Z,1011.84
2018-08-19T09:13:16.176Z,1011.85
2018-08-19T09:14:21.681Z,1011.83
2018-08-19T09:15:28.214Z,1011.82
2018-08-19T09:16:32.716Z,1011.81
2018-08-19T09:17:39.310Z,1011.81
2018-08-19T09:18:43.771Z,1011.80
2018-08-19T09:19:49.274Z,1011.78
2018-08-19T09:20:55.802Z,1011.80
2018-08-19T09:22:00.317Z,1011.82
2018-08-19T09:23:06.912Z,1011.82
2018-08-19T09:24:11.340Z,1011.80
2018-08-19T09:25:16.870Z,1011.78
2018-08-19T09:26:23.415Z,1011.77
2018-08-19T09:27:27.891Z,1011.74
2018-08-19T09:28:34.442Z,1011.75
2018-08-19T09:29:38.927Z,1011.75
2018-08-19T09:30:44.464Z,1011.77
2018-08-19T09:31:50.989Z,1011.75
2018-08-19T09:32:56.249Z,1011.69
2018-08-19T09:34:02.025Z,1011.69
2018-08-19T09:35:06.521Z,1011.68
2018-08-19T09:36:12.030Z,1011.63
2018-08-19T09:37:18.596Z,1011.62
2018-08-19T09:38:23.111Z,1011.60
2018-08-19T09:39:29.600Z,1011.57
2018-08-19T09:40:34.152Z,1011.65
2018-08-19T09:41:39.642Z,1011.60
2018-08-19T09:42:46.158Z,1011.59
2018-08-19T09:43:50.686Z,1011.55
2018-08-19T09:44:57.229Z,1011.63
2018-08-19T09:46:01.754Z,1011.59
2018-08-19T09:47:07.213Z,1011.60
2018-08-19T09:48:13.779Z,1011.64
2018-08-19T09:49:18.238Z,1011.62
2018-08-19T09:50:24.835Z,1011.57
2018-08-19T09:51:29.278Z,1011.57
2018-08-19T09:52:34.805Z,1011.57
2018-08-19T09:53:41.355Z,1011.63
2018-08-19T09:54:45.871Z,1011.55
2018-08-19T09:55:52.397Z,1011.56
2018-08-19T09:56:56.894Z,1011.59
2018-08-19T09:58:02.384Z,1011.51
2018-08-19T09:59:08.954Z,1011.44
2018-08-19T10:00:13.479Z,1011.47
2018-08-19T10:01:19.966Z,1011.52
2018-08-19T10:02:24.447Z,1011.48
2018-08-19T10:03:30.018Z,1011.45
2018-08-19T10:04:36.532Z,1011.48
2018-08-19T10:05:41.042Z,1011.41
2018-08-19T10:06:47.610Z,1011.43
2018-08-19T10:07:52.105Z,1011.41
2018-08-19T10:08:57.572Z,1011.44
2018-08-19T10:10:04.148Z,1011.43
2018-08-19T10:11:08.646Z,1011.44
2018-08-19T10:12:15.170Z,1011.43
2018-08-19T10:13:19.671Z,1011.45
2018-08-19T10:14:25.194Z,1011.39
2018-08-19T10:15:31.714Z,1011.42
2018-08-19T10:16:36.210Z,1011.35
2018-08-19T10:17:42.852Z,1011.29
2018-08-19T10:18:47.293Z,1011.30
2018-08-19T10:19:52.816Z,1011.33
2018-08-19T10:20:59.327Z,1011.32
2018-08-19T10:22:03.830Z,1011.29
2018-08-19T10:23:10.356Z,1011.25
2018-08-19T10:24:14.843Z,1011.27
2018-08-19T10:25:20.372Z,1011.27
2018-08-19T10:26:26.940Z,1011.22
2018-08-19T10:27:31.384Z,1011.24
2018-08-19T10:28:37.948Z,1011.20
2018-08-19T10:29:42.427Z,1011.18
2018-08-19T10:30:47.958Z,1011.16
2018-08-19T10:31:54.494Z,1011.15
2018-08-19T10:32:59.028Z,1011.14
2018-08-19T10:34:05.552Z,1011.21
2018-08-19T10:35:10.053Z,1011.16
2018-08-19T10:36:15.569Z,1011.12
2018-08-19T10:37:22.099Z,1011.08
2018-08-19T10:38:26.664Z,1011.16
2018-08-19T10:39:33.145Z,1011.13
2018-08-19T10:40:37.672Z,1011.13
2018-08-19T10:41:43.179Z,1011.07
2018-08-19T10:42:49.698Z,1011.05
2018-08-19T10:43:54.200Z,1011.11
2018-08-19T10:45:00.732Z,1010.98
2018-08-19T10:46:05.213Z,1011.04
2018-08-19T10:47:10.746Z,1011.02
2018-08-19T10:48:20.132Z,1010.98
2018-08-19T10:49:21.792Z,1010.98
2018-08-19T10:50:28.344Z,1010.98
2018-08-19T10:51:32.840Z,1010.96
2018-08-19T10:52:38.362Z,1010.92
2018-08-19T10:53:44.894Z,1010.92
2018-08-19T10:54:49.379Z,1010.93
2018-08-19T10:55:55.948Z,1010.96
2018-08-19T10:57:00.415Z,1010.92
2018-08-19T10:58:05.961Z,1010.85
2018-08-19T10:59:12.496Z,1010.88
2018-08-19T11:00:16.992Z,1010.85
2018-08-19T11:01:23.533Z,1010.86
2018-08-19T11:02:28.049Z,1010.76
2018-08-19T11:03:33.552Z,1010.77
2018-08-19T11:04:40.076Z,1010.77
2018-08-19T11:05:44.601Z,1010.78
2018-08-19T11:06:51.149Z,1010.77
2018-08-19T11:07:55.619Z,1010.77
2018-08-19T11:09:01.164Z,1010.82
2018-08-19T11:10:07.663Z,1010.77
2018-08-19T11:11:12.168Z,1010.76
2018-08-19T11:12:18.746Z,1010.74
2018-08-19T11:13:23.289Z,1010.76
2018-08-19T11:14:28.745Z,1010.74
2018-08-19T11:15:35.282Z,1010.69
2018-08-19T11:16:39.814Z,1010.71
2018-08-19T11:17:46.323Z,1010.73
2018-08-19T11:18:50.818Z,1010.70
2018-08-19T11:19:56.339Z,1010.72
2018-08-19T11:21:02.976Z,1010.69
2018-08-19T11:22:07.365Z,1010.67
2018-08-19T11:23:13.964Z,1010.65
2018-08-19T11:24:18.443Z,1010.68
2018-08-19T11:25:23.959Z,1010.65
2018-08-19T11:26:30.552Z,1010.62
2018-08-19T11:27:35.005Z,1010.63
2018-08-19T11:28:41.510Z,1010.64
2018-08-19T11:29:46.015Z,1010.65
2018-08-19T11:30:51.538Z,1010.62
2018-08-19T11:31:58.068Z,1010.55
2018-08-19T11:33:02.560Z,1010.54
2018-08-19T11:34:09.123Z,1010.56
2018-08-19T11:35:13.672Z,1010.50
2018-08-19T11:36:19.155Z,1010.48
2018-08-19T11:37:25.675Z,1010.46
2018-08-19T11:38:30.195Z,1010.45
2018-08-19T11:39:36.705Z,1010.44
2018-08-19T11:40:41.205Z,1010.44
2018-08-19T11:41:46.754Z,1010.44
2018-08-19T11:42:53.277Z,1010.42
2018-08-19T11:43:57.791Z,1010.37
2018-08-19T11:45:04.328Z,1010.36
2018-08-19T11:46:08.845Z,1010.37
2018-08-19T11:47:14.345Z,1010.41
2018-08-19T11:48:20.873Z,1010.37
2018-08-19T11:49:25.388Z,1010.42
2018-08-19T11:50:31.900Z,1010.41
2018-08-19T11:51:36.449Z,1010.41
2018-08-19T11:52:41.970Z,1010.47
2018-08-19T11:53:48.473Z,1010.44
2018-08-19T11:54:52.991Z,1010.40
2018-08-19T11:55:59.533Z,1010.35
2018-08-19T11:57:04.045Z,1010.33
2018-08-19T11:58:09.553Z,1010.37
2018-08-19T11:59:16.057Z,1010.39
2018-08-19T12:00:20.605Z,1010.39
2018-08-19T12:01:27.117Z,1010.37
2018-08-19T12:02:31.630Z,1010.35
2018-08-19T12:03:37.184Z,1010.37
2018-08-19T12:04:43.710Z,1010.35
2018-08-19T12:05:48.186Z,1010.30
2018-08-19T12:06:54.712Z,1010.33
2018-08-19T12:07:59.257Z,1010.36
2018-08-19T12:09:04.776Z,1010.29
2018-08-19T12:10:11.293Z,1010.31
2018-08-19T12:11:15.797Z,1010.30
2018-08-19T12:12:22.324Z,1010.25
2018-08-19T12:13:26.823Z,1010.29
2018-08-19T12:14:32.385Z,1010.26
2018-08-19T12:15:38.896Z,1010.27
2018-08-19T12:16:43.423Z,1010.28
2018-08-19T12:17:49.974Z,1010.29
2018-08-19T12:18:54.447Z,1010.30
2018-08-19T12:19:59.975Z,1010.18
2018-08-19T12:21:06.515Z,1010.21
2018-08-19T12:22:11.040Z,1010.29
2018-08-19T12:23:17.548Z,1010.29
2018-08-19T12:24:22.069Z,1010.23
2018-08-19T12:25:27.618Z,1010.28
2018-08-19T12:26:34.114Z,1010.24
2018-08-19T12:27:38.735Z,1010.23
2018-08-19T12:28:45.146Z,1010.18
2018-08-19T12:29:49.675Z,1010.20
2018-08-19T12:30:55.176Z,1010.16
2018-08-19T12:32:01.688Z,1010.09
2018-08-19T12:33:06.205Z,1010.10
2018-08-19T12:34:12.780Z,1010.10
2018-08-19T12:35:17.269Z,1010.11
2018-08-19T12:36:22.776Z,1010.01
2018-08-19T12:37:29.287Z,1010.06
2018-08-19T12:38:33.807Z,1010.07
2018-08-19T12:39:40.337Z,1010.08
2018-08-19T12:40:44.867Z,1010.06
2018-08-19T12:41:50.411Z,1010.06
2018-08-19T12:42:57.761Z,1010.10
2018-08-19T12:44:01.424Z,1010.04
2018-08-19T12:45:07.987Z,1010.03
2018-08-19T12:46:12.508Z,1009.97
2018-08-19T12:47:18.012Z,1009.99
2018-08-19T12:48:24.509Z,1010.02
2018-08-19T12:49:29.031Z,1009.97
2018-08-19T12:50:35.571Z,1009.94
2018-08-19T12:51:40.080Z,1009.96
2018-08-19T12:52:45.594Z,1009.91
2018-08-19T12:53:52.115Z,1009.91
2018-08-19T12:54:56.648Z,1009.92
2018-08-19T12:56:03.169Z,1009.91
2018-08-19T12:57:07.662Z,1009.82
2018-08-19T12:58:13.185Z,1009.83
2018-08-19T12:59:19.725Z,1009.88
2018-08-19T13:00:24.227Z,1009.82
2018-08-19T13:01:30.776Z,1009.79
2018-08-19T13:02:35.317Z,1009.78
2018-08-19T13:03:40.807Z,1009.82
2018-08-19T13:04:47.326Z,1009.91
2018-08-19T13:05:51.872Z,1009.85
2018-08-19T13:06:58.396Z,1009.88
2018-08-19T13:08:02.935Z,1009.77
2018-08-19T13:09:08.417Z,1009.74
2018-08-19T13:10:14.946Z,1009.71
2018-08-19T13:11:19.433Z,1009.71
2018-08-19T13:12:26.017Z,1009.69